LiveATC.Net - Listen to live air traffic control over the Internet! Contact LiveATC.net for advertising information


ICAO: MMUN  IATA: CUN   Airport: Cancun International Airport
City: Cancun
Country: Mexico   Continent: North America
MMUN METAR Weather: MMUN 220046Z 07006KT 5SM -RA SCT015 BKN080 OVC200 25/24 A2982 RMK 60035 8/577
MMUN Flight Activity (FlightAware)
MMUN Twr/App/Center
Feed Status: DOWN
Last heard on: 2014-10-21 20:10:05 (0 days 5 hours 21 minutes ago)
MMUN Twr/App/Center Audio Archives
FacilityFrequency
Cancun Approach123.400
Cancun Departure119.800
Cancun Tower (North)118.100
Cancun Tower (South)118.600
Merida Center125.200
Merida Center128.200


NOTICE

Unauthorized use prohibited. See LiveATC.net Terms of Service


Find LiveATC Audio Streams


Airport/ARTCC Code

Frequency
(e.g., 124.400, 128.75)
Site-wide search

Browse LiveATC Feeds
LiveATC Coverage Map
Top 50 LiveATC Feeds
Bad Weather Areas

LiveATC FAQ
Offer a LiveATC Feed
Contact LiveATC.net
Press Inquiries

LiveATC on iPhone
LiveATC on Android

LiveATC Mobile
(Mobile browser)

ATC Audio Archives
Interesting Recordings

LiveATC Forums


Home Page
About LiveATC.net
Make a Donation
LiveATC Bookstore

Terms of Use
Privacy Policy

ATC/Radar Sites
U.S. ARTCC Freqs
Canadian Air Freqs

AIRMETs/SIGMETs

FAA Airport Status
Nat'l Airspace Status
Arrival Demand Charts


Server Software By:
Icecast.org
Liquidsoap

Please make a donation to help us keep growing!